sensor_id;sensor_type;location;lat;lon;timestamp;P1;durP1;ratioP1;P2;durP2;ratioP2
62102;SDS011;48077;48.104;11.702;2022-11-20T00:02:08;2.38;;;1.52;;
62102;SDS011;48077;48.104;11.702;2022-11-20T00:04:32;2.80;;;1.50;;
62102;SDS011;48077;48.104;11.702;2022-11-20T00:06:55;2.28;;;1.30;;
62102;SDS011;48077;48.104;11.702;2022-11-20T00:09:18;2.33;;;1.40;;
62102;SDS011;48077;48.104;11.702;2022-11-20T00:11:42;2.95;;;1.65;;
62102;SDS011;48077;48.104;11.702;2022-11-20T00:14:05;2.10;;;1.40;;
62102;SDS011;48077;48.104;11.702;2022-11-20T00:16:30;2.67;;;1.55;;
62102;SDS011;48077;48.104;11.702;2022-11-20T00:18:55;3.25;;;1.70;;
62102;SDS011;48077;48.104;11.702;2022-11-20T00:21:22;2.53;;;1.35;;
62102;SDS011;48077;48.104;11.702;2022-11-20T00:23:47;2.85;;;1.30;;
62102;SDS011;48077;48.104;11.702;2022-11-20T00:26:11;2.05;;;1.40;;
62102;SDS011;48077;48.104;11.702;2022-11-20T00:28:37;4.93;;;1.73;;
62102;SDS011;48077;48.104;11.702;2022-11-20T00:31:01;2.58;;;1.63;;
62102;SDS011;48077;48.104;11.702;2022-11-20T00:33:29;2.38;;;1.42;;
62102;SDS011;48077;48.104;11.702;2022-11-20T00:35:53;4.63;;;1.58;;
62102;SDS011;48077;48.104;11.702;2022-11-20T00:38:16;3.40;;;1.75;;
62102;SDS011;48077;48.104;11.702;2022-11-20T00:40:39;6.00;;;1.63;;
62102;SDS011;48077;48.104;11.702;2022-11-20T00:43:02;2.90;;;1.15;;
62102;SDS011;48077;48.104;11.702;2022-11-20T00:45:26;2.80;;;1.55;;
62102;SDS011;48077;48.104;11.702;2022-11-20T00:47:49;3.65;;;1.88;;
62102;SDS011;48077;48.104;11.702;2022-11-20T00:50:13;2.28;;;1.55;;
62102;SDS011;48077;48.104;11.702;2022-11-20T00:52:36;2.60;;;1.30;;
62102;SDS011;48077;48.104;11.702;2022-11-20T00:54:59;4.00;;;1.52;;
62102;SDS011;48077;48.104;11.702;2022-11-20T00:57:23;3.78;;;1.50;;
62102;SDS011;48077;48.104;11.702;2022-11-20T00:59:46;2.72;;;1.60;;
62102;SDS011;48077;48.104;11.702;2022-11-20T01:02:09;2.25;;;1.17;;
62102;SDS011;48077;48.104;11.702;2022-11-20T01:04:33;2.35;;;1.30;;
62102;SDS011;48077;48.104;11.702;2022-11-20T01:06:56;2.92;;;1.60;;
62102;SDS011;48077;48.104;11.702;2022-11-20T01:09:19;3.08;;;1.83;;
62102;SDS011;48077;48.104;11.702;2022-11-20T01:11:43;3.47;;;1.50;;
62102;SDS011;48077;48.104;11.702;2022-11-20T01:14:09;2.78;;;1.45;;
62102;SDS011;48077;48.104;11.702;2022-11-20T01:16:36;3.50;;;1.60;;
62102;SDS011;48077;48.104;11.702;2022-11-20T01:19:03;2.40;;;1.50;;
62102;SDS011;48077;48.104;11.702;2022-11-20T01:21:30;2.20;;;1.30;;
62102;SDS011;48077;48.104;11.702;2022-11-20T01:23:55;2.78;;;1.60;;
62102;SDS011;48077;48.104;11.702;2022-11-20T01:26:21;3.75;;;1.80;;
62102;SDS011;48077;48.104;11.702;2022-11-20T01:28:47;2.65;;;1.55;;
62102;SDS011;48077;48.104;11.702;2022-11-20T01:31:15;2.40;;;1.27;;
62102;SDS011;48077;48.104;11.702;2022-11-20T01:33:51;2.67;;;1.58;;
62102;SDS011;48077;48.104;11.702;2022-11-20T01:36:16;2.97;;;1.40;;
62102;SDS011;48077;48.104;11.702;2022-11-20T01:38:41;3.08;;;1.45;;
62102;SDS011;48077;48.104;11.702;2022-11-20T01:41:06;2.78;;;1.48;;
62102;SDS011;48077;48.104;11.702;2022-11-20T01:43:30;2.88;;;1.50;;
62102;SDS011;48077;48.104;11.702;2022-11-20T01:51:05;2.72;;;1.42;;
62102;SDS011;48077;48.104;11.702;2022-11-20T01:53:35;3.78;;;1.73;;
62102;SDS011;48077;48.104;11.702;2022-11-20T01:56:00;4.07;;;2.13;;
62102;SDS011;48077;48.104;11.702;2022-11-20T01:58:27;2.67;;;1.70;;
62102;SDS011;48077;48.104;11.702;2022-11-20T02:00:53;2.20;;;1.38;;
62102;SDS011;48077;48.104;11.702;2022-11-20T02:03:17;2.85;;;1.58;;
62102;SDS011;48077;48.104;11.702;2022-11-20T02:08:35;3.03;;;1.83;;
62102;SDS011;48077;48.104;11.702;2022-11-20T02:11:00;4.30;;;1.67;;
62102;SDS011;48077;48.104;11.702;2022-11-20T02:13:23;3.58;;;1.50;;
62102;SDS011;48077;48.104;11.702;2022-11-20T02:16:08;2.75;;;1.52;;
62102;SDS011;48077;48.104;11.702;2022-11-20T02:18:36;5.00;;;1.92;;
62102;SDS011;48077;48.104;11.702;2022-11-20T02:21:02;2.60;;;1.75;;
62102;SDS011;48077;48.104;11.702;2022-11-20T02:23:32;3.22;;;1.95;;
62102;SDS011;48077;48.104;11.702;2022-11-20T02:26:01;2.65;;;1.50;;
62102;SDS011;48077;48.104;11.702;2022-11-20T02:28:27;6.10;;;1.90;;
62102;SDS011;48077;48.104;11.702;2022-11-20T02:30:51;3.28;;;1.90;;
62102;SDS011;48077;48.104;11.702;2022-11-20T02:33:14;4.15;;;2.13;;
62102;SDS011;48077;48.104;11.702;2022-11-20T02:35:46;3.88;;;1.95;;
62102;SDS011;48077;48.104;11.702;2022-11-20T02:38:10;7.07;;;2.22;;
62102;SDS011;48077;48.104;11.702;2022-11-20T02:40:34;4.18;;;1.75;;
62102;SDS011;48077;48.104;11.702;2022-11-20T02:42:57;4.25;;;1.65;;
62102;SDS011;48077;48.104;11.702;2022-11-20T02:45:21;4.45;;;2.03;;
62102;SDS011;48077;48.104;11.702;2022-11-20T02:47:45;2.65;;;2.03;;
62102;SDS011;48077;48.104;11.702;2022-11-20T02:50:09;3.70;;;2.03;;
62102;SDS011;48077;48.104;11.702;2022-11-20T02:52:32;4.47;;;2.63;;
62102;SDS011;48077;48.104;11.702;2022-11-20T02:54:56;3.72;;;2.45;;
62102;SDS011;48077;48.104;11.702;2022-11-20T02:57:19;2.88;;;1.88;;
62102;SDS011;48077;48.104;11.702;2022-11-20T02:59:43;3.65;;;1.98;;
62102;SDS011;48077;48.104;11.702;2022-11-20T03:02:06;4.35;;;2.40;;
62102;SDS011;48077;48.104;11.702;2022-11-20T03:04:30;2.83;;;1.95;;
62102;SDS011;48077;48.104;11.702;2022-11-20T03:06:53;2.65;;;1.88;;
62102;SDS011;48077;48.104;11.702;2022-11-20T03:09:16;3.58;;;1.83;;
62102;SDS011;48077;48.104;11.702;2022-11-20T03:11:40;3.33;;;1.75;;
62102;SDS011;48077;48.104;11.702;2022-11-20T03:14:04;3.10;;;2.05;;
62102;SDS011;48077;48.104;11.702;2022-11-20T03:16:28;3.22;;;2.00;;
62102;SDS011;48077;48.104;11.702;2022-11-20T03:18:51;3.53;;;1.80;;
62102;SDS011;48077;48.104;11.702;2022-11-20T03:21:15;3.90;;;2.08;;
62102;SDS011;48077;48.104;11.702;2022-11-20T03:23:39;3.03;;;1.90;;
62102;SDS011;48077;48.104;11.702;2022-11-20T03:28:59;3.13;;;1.88;;
62102;SDS011;48077;48.104;11.702;2022-11-20T03:31:25;2.88;;;1.90;;
62102;SDS011;48077;48.104;11.702;2022-11-20T03:33:50;3.50;;;2.10;;
62102;SDS011;48077;48.104;11.702;2022-11-20T03:36:15;3.03;;;1.83;;
62102;SDS011;48077;48.104;11.702;2022-11-20T03:38:39;3.92;;;2.33;;
62102;SDS011;48077;48.104;11.702;2022-11-20T03:41:05;3.40;;;2.00;;
62102;SDS011;48077;48.104;11.702;2022-11-20T03:45:56;2.65;;;1.75;;
62102;SDS011;48077;48.104;11.702;2022-11-20T03:48:20;4.95;;;2.28;;
62102;SDS011;48077;48.104;11.702;2022-11-20T03:50:43;3.47;;;1.85;;
62102;SDS011;48077;48.104;11.702;2022-11-20T03:53:06;3.42;;;1.83;;
62102;SDS011;48077;48.104;11.702;2022-11-20T03:55:30;3.40;;;1.95;;
62102;SDS011;48077;48.104;11.702;2022-11-20T03:57:53;3.60;;;1.88;;
62102;SDS011;48077;48.104;11.702;2022-11-20T04:00:16;3.15;;;2.10;;
62102;SDS011;48077;48.104;11.702;2022-11-20T04:02:40;4.18;;;1.90;;
62102;SDS011;48077;48.104;11.702;2022-11-20T04:05:03;2.72;;;2.03;;
62102;SDS011;48077;48.104;11.702;2022-11-20T04:07:27;4.05;;;2.15;;
62102;SDS011;48077;48.104;11.702;2022-11-20T04:09:50;2.53;;;1.85;;
62102;SDS011;48077;48.104;11.702;2022-11-20T04:12:13;3.03;;;2.00;;
62102;SDS011;48077;48.104;11.702;2022-11-20T04:14:37;3.05;;;2.03;;
62102;SDS011;48077;48.104;11.702;2022-11-20T04:17:01;3.08;;;1.92;;
62102;SDS011;48077;48.104;11.702;2022-11-20T04:19:24;2.92;;;1.83;;
62102;SDS011;48077;48.104;11.702;2022-11-20T04:21:48;3.00;;;1.92;;
62102;SDS011;48077;48.104;11.702;2022-11-20T04:24:11;2.58;;;1.58;;
62102;SDS011;48077;48.104;11.702;2022-11-20T04:26:35;3.75;;;2.10;;
62102;SDS011;48077;48.104;11.702;2022-11-20T04:28:59;3.05;;;1.85;;
62102;SDS011;48077;48.104;11.702;2022-11-20T04:31:25;6.70;;;2.40;;
62102;SDS011;48077;48.104;11.702;2022-11-20T04:33:50;4.18;;;2.50;;
62102;SDS011;48077;48.104;11.702;2022-11-20T04:36:18;4.50;;;2.42;;
62102;SDS011;48077;48.104;11.702;2022-11-20T04:38:43;4.07;;;2.10;;
62102;SDS011;48077;48.104;11.702;2022-11-20T04:41:08;2.75;;;1.88;;
62102;SDS011;48077;48.104;11.702;2022-11-20T04:43:37;4.22;;;2.38;;
62102;SDS011;48077;48.104;11.702;2022-11-20T04:46:00;4.15;;;2.00;;
62102;SDS011;48077;48.104;11.702;2022-11-20T04:48:24;3.95;;;1.80;;
62102;SDS011;48077;48.104;11.702;2022-11-20T04:50:49;3.72;;;1.85;;
62102;SDS011;48077;48.104;11.702;2022-11-20T04:53:13;2.78;;;1.83;;
62102;SDS011;48077;48.104;11.702;2022-11-20T04:55:36;2.75;;;1.75;;
62102;SDS011;48077;48.104;11.702;2022-11-20T04:58:00;5.43;;;1.83;;
62102;SDS011;48077;48.104;11.702;2022-11-20T05:00:23;4.45;;;2.05;;
62102;SDS011;48077;48.104;11.702;2022-11-20T05:02:46;3.45;;;1.73;;
62102;SDS011;48077;48.104;11.702;2022-11-20T05:05:10;2.60;;;1.60;;
62102;SDS011;48077;48.104;11.702;2022-11-20T05:07:33;5.53;;;2.95;;
62102;SDS011;48077;48.104;11.702;2022-11-20T05:09:56;3.45;;;1.90;;
62102;SDS011;48077;48.104;11.702;2022-11-20T05:12:20;5.30;;;2.17;;
62102;SDS011;48077;48.104;11.702;2022-11-20T05:14:43;4.05;;;2.22;;
62102;SDS011;48077;48.104;11.702;2022-11-20T05:17:09;3.20;;;1.80;;
62102;SDS011;48077;48.104;11.702;2022-11-20T05:19:33;4.88;;;2.50;;
62102;SDS011;48077;48.104;11.702;2022-11-20T05:21:56;8.18;;;2.20;;
62102;SDS011;48077;48.104;11.702;2022-11-20T05:24:20;2.92;;;1.73;;
62102;SDS011;48077;48.104;11.702;2022-11-20T05:26:43;2.50;;;1.73;;
62102;SDS011;48077;48.104;11.702;2022-11-20T05:29:09;2.78;;;1.85;;
62102;SDS011;48077;48.104;11.702;2022-11-20T05:31:33;3.20;;;2.20;;
62102;SDS011;48077;48.104;11.702;2022-11-20T05:33:57;3.05;;;1.77;;
62102;SDS011;48077;48.104;11.702;2022-11-20T05:36:20;3.20;;;1.83;;
62102;SDS011;48077;48.104;11.702;2022-11-20T05:38:43;4.20;;;2.03;;
62102;SDS011;48077;48.104;11.702;2022-11-20T05:41:08;3.42;;;1.70;;
62102;SDS011;48077;48.104;11.702;2022-11-20T05:43:36;5.43;;;2.10;;
62102;SDS011;48077;48.104;11.702;2022-11-20T05:46:02;4.35;;;2.28;;
62102;SDS011;48077;48.104;11.702;2022-11-20T05:48:26;2.85;;;1.83;;
62102;SDS011;48077;48.104;11.702;2022-11-20T05:50:49;5.32;;;2.28;;
62102;SDS011;48077;48.104;11.702;2022-11-20T05:53:13;3.53;;;1.77;;
62102;SDS011;48077;48.104;11.702;2022-11-20T05:55:36;3.33;;;1.73;;
62102;SDS011;48077;48.104;11.702;2022-11-20T05:58:00;2.28;;;1.63;;
62102;SDS011;48077;48.104;11.702;2022-11-20T06:00:23;2.13;;;1.70;;
62102;SDS011;48077;48.104;11.702;2022-11-20T06:02:46;3.22;;;1.58;;
62102;SDS011;48077;48.104;11.702;2022-11-20T06:05:10;3.03;;;1.70;;
62102;SDS011;48077;48.104;11.702;2022-11-20T06:07:33;3.00;;;1.38;;
62102;SDS011;48077;48.104;11.702;2022-11-20T06:09:56;2.00;;;1.45;;
62102;SDS011;48077;48.104;11.702;2022-11-20T06:12:20;5.00;;;1.83;;
62102;SDS011;48077;48.104;11.702;2022-11-20T06:14:43;2.58;;;1.60;;
62102;SDS011;48077;48.104;11.702;2022-11-20T06:17:07;2.58;;;1.85;;
62102;SDS011;48077;48.104;11.702;2022-11-20T06:19:30;3.60;;;1.88;;
62102;SDS011;48077;48.104;11.702;2022-11-20T06:21:53;3.45;;;1.70;;
62102;SDS011;48077;48.104;11.702;2022-11-20T06:24:17;2.60;;;1.92;;
62102;SDS011;48077;48.104;11.702;2022-11-20T06:26:40;2.58;;;1.90;;
62102;SDS011;48077;48.104;11.702;2022-11-20T06:29:04;4.00;;;1.95;;
62102;SDS011;48077;48.104;11.702;2022-11-20T06:31:27;3.47;;;2.10;;
62102;SDS011;48077;48.104;11.702;2022-11-20T06:33:51;3.85;;;2.30;;
62102;SDS011;48077;48.104;11.702;2022-11-20T06:36:16;2.90;;;1.85;;
62102;SDS011;48077;48.104;11.702;2022-11-20T06:38:40;3.30;;;2.20;;
62102;SDS011;48077;48.104;11.702;2022-11-20T06:41:04;3.70;;;1.80;;
62102;SDS011;48077;48.104;11.702;2022-11-20T06:43:29;5.13;;;2.50;;
62102;SDS011;48077;48.104;11.702;2022-11-20T06:45:53;3.83;;;2.15;;
62102;SDS011;48077;48.104;11.702;2022-11-20T06:48:17;4.80;;;1.90;;
62102;SDS011;48077;48.104;11.702;2022-11-20T06:50:40;2.85;;;1.98;;
62102;SDS011;48077;48.104;11.702;2022-11-20T06:53:04;4.22;;;1.73;;
62102;SDS011;48077;48.104;11.702;2022-11-20T06:55:28;2.40;;;1.65;;
62102;SDS011;48077;48.104;11.702;2022-11-20T06:57:51;3.72;;;1.80;;
62102;SDS011;48077;48.104;11.702;2022-11-20T07:00:14;2.08;;;1.42;;
62102;SDS011;48077;48.104;11.702;2022-11-20T07:02:38;2.80;;;1.67;;
62102;SDS011;48077;48.104;11.702;2022-11-20T07:05:01;2.92;;;1.65;;
62102;SDS011;48077;48.104;11.702;2022-11-20T07:07:25;2.38;;;1.40;;
62102;SDS011;48077;48.104;11.702;2022-11-20T07:09:48;3.95;;;1.88;;
62102;SDS011;48077;48.104;11.702;2022-11-20T07:12:12;3.13;;;1.75;;
62102;SDS011;48077;48.104;11.702;2022-11-20T07:14:35;2.85;;;1.50;;
62102;SDS011;48077;48.104;11.702;2022-11-20T07:16:58;2.85;;;1.80;;
62102;SDS011;48077;48.104;11.702;2022-11-20T07:19:22;3.85;;;1.77;;
62102;SDS011;48077;48.104;11.702;2022-11-20T07:21:45;3.15;;;1.88;;
62102;SDS011;48077;48.104;11.702;2022-11-20T07:24:08;4.53;;;1.80;;
62102;SDS011;48077;48.104;11.702;2022-11-20T07:26:32;4.05;;;2.03;;
62102;SDS011;48077;48.104;11.702;2022-11-20T07:28:55;3.95;;;2.13;;
62102;SDS011;48077;48.104;11.702;2022-11-20T07:31:18;7.38;;;2.88;;
62102;SDS011;48077;48.104;11.702;2022-11-20T07:33:42;4.15;;;2.35;;
62102;SDS011;48077;48.104;11.702;2022-11-20T07:36:05;3.53;;;2.00;;
62102;SDS011;48077;48.104;11.702;2022-11-20T07:38:29;4.28;;;2.40;;
62102;SDS011;48077;48.104;11.702;2022-11-20T07:40:56;6.70;;;2.63;;
62102;SDS011;48077;48.104;11.702;2022-11-20T07:43:20;3.97;;;2.30;;
62102;SDS011;48077;48.104;11.702;2022-11-20T07:45:43;3.97;;;1.95;;
62102;SDS011;48077;48.104;11.702;2022-11-20T07:48:07;4.10;;;2.03;;
62102;SDS011;48077;48.104;11.702;2022-11-20T07:50:30;3.63;;;2.35;;
62102;SDS011;48077;48.104;11.702;2022-11-20T07:53:00;3.25;;;2.17;;
62102;SDS011;48077;48.104;11.702;2022-11-20T07:55:24;3.80;;;2.08;;
62102;SDS011;48077;48.104;11.702;2022-11-20T07:57:53;2.80;;;1.77;;
62102;SDS011;48077;48.104;11.702;2022-11-20T08:00:17;3.72;;;2.10;;
62102;SDS011;48077;48.104;11.702;2022-11-20T08:02:41;5.38;;;2.15;;
62102;SDS011;48077;48.104;11.702;2022-11-20T08:05:05;3.58;;;1.90;;
62102;SDS011;48077;48.104;11.702;2022-11-20T08:07:29;2.55;;;1.65;;
62102;SDS011;48077;48.104;11.702;2022-11-20T08:09:52;4.60;;;2.28;;
62102;SDS011;48077;48.104;11.702;2022-11-20T08:12:19;4.03;;;2.22;;
62102;SDS011;48077;48.104;11.702;2022-11-20T08:15:02;3.00;;;1.80;;
62102;SDS011;48077;48.104;11.702;2022-11-20T08:17:26;2.83;;;1.58;;
62102;SDS011;48077;48.104;11.702;2022-11-20T08:19:50;3.40;;;1.58;;
62102;SDS011;48077;48.104;11.702;2022-11-20T08:22:13;2.97;;;2.08;;
62102;SDS011;48077;48.104;11.702;2022-11-20T08:24:36;3.33;;;2.00;;
62102;SDS011;48077;48.104;11.702;2022-11-20T08:27:00;3.05;;;1.85;;
62102;SDS011;48077;48.104;11.702;2022-11-20T08:29:23;4.28;;;1.90;;
62102;SDS011;48077;48.104;11.702;2022-11-20T08:31:46;3.25;;;1.92;;
62102;SDS011;48077;48.104;11.702;2022-11-20T08:34:10;4.03;;;1.90;;
62102;SDS011;48077;48.104;11.702;2022-11-20T08:36:33;2.95;;;1.52;;
62102;SDS011;48077;48.104;11.702;2022-11-20T08:38:57;2.88;;;1.70;;
62102;SDS011;48077;48.104;11.702;2022-11-20T08:41:21;2.72;;;1.60;;
62102;SDS011;48077;48.104;11.702;2022-11-20T08:43:52;2.95;;;1.67;;
62102;SDS011;48077;48.104;11.702;2022-11-20T08:46:16;3.90;;;2.10;;
62102;SDS011;48077;48.104;11.702;2022-11-20T08:48:40;2.47;;;1.90;;
62102;SDS011;48077;48.104;11.702;2022-11-20T08:51:03;2.63;;;1.75;;
62102;SDS011;48077;48.104;11.702;2022-11-20T08:53:27;2.83;;;1.80;;
62102;SDS011;48077;48.104;11.702;2022-11-20T08:55:50;2.28;;;1.50;;
62102;SDS011;48077;48.104;11.702;2022-11-20T08:58:14;2.75;;;1.48;;
62102;SDS011;48077;48.104;11.702;2022-11-20T09:00:37;5.57;;;1.90;;
62102;SDS011;48077;48.104;11.702;2022-11-20T09:03:00;3.05;;;1.67;;
62102;SDS011;48077;48.104;11.702;2022-11-20T09:05:24;2.25;;;1.33;;
62102;SDS011;48077;48.104;11.702;2022-11-20T09:07:47;2.38;;;1.58;;
62102;SDS011;48077;48.104;11.702;2022-11-20T09:10:11;3.58;;;1.88;;
62102;SDS011;48077;48.104;11.702;2022-11-20T09:12:34;4.85;;;1.48;;
62102;SDS011;48077;48.104;11.702;2022-11-20T09:14:57;2.03;;;1.23;;
62102;SDS011;48077;48.104;11.702;2022-11-20T09:17:21;3.75;;;1.50;;
62102;SDS011;48077;48.104;11.702;2022-11-20T09:19:44;3.50;;;1.33;;
62102;SDS011;48077;48.104;11.702;2022-11-20T09:22:08;2.20;;;1.40;;
62102;SDS011;48077;48.104;11.702;2022-11-20T09:24:31;3.30;;;1.65;;
62102;SDS011;48077;48.104;11.702;2022-11-20T09:26:55;3.33;;;1.30;;
62102;SDS011;48077;48.104;11.702;2022-11-20T09:29:18;3.47;;;1.55;;
62102;SDS011;48077;48.104;11.702;2022-11-20T09:31:41;3.47;;;1.67;;
62102;SDS011;48077;48.104;11.702;2022-11-20T09:34:05;3.03;;;1.35;;
62102;SDS011;48077;48.104;11.702;2022-11-20T09:36:28;2.35;;;1.40;;
62102;SDS011;48077;48.104;11.702;2022-11-20T09:38:51;2.25;;;1.30;;
62102;SDS011;48077;48.104;11.702;2022-11-20T09:41:29;2.10;;;1.33;;
62102;SDS011;48077;48.104;11.702;2022-11-20T09:46:29;2.67;;;1.63;;
62102;SDS011;48077;48.104;11.702;2022-11-20T09:49:14;6.50;;;2.33;;
62102;SDS011;48077;48.104;11.702;2022-11-20T09:51:59;5.22;;;1.70;;
62102;SDS011;48077;48.104;11.702;2022-11-20T09:54:30;2.83;;;1.45;;
62102;SDS011;48077;48.104;11.702;2022-11-20T09:57:08;3.53;;;1.63;;
62102;SDS011;48077;48.104;11.702;2022-11-20T09:59:41;2.67;;;1.20;;
62102;SDS011;48077;48.104;11.702;2022-11-20T10:07:52;3.35;;;1.40;;
62102;SDS011;48077;48.104;11.702;2022-11-20T10:10:40;2.40;;;1.33;;
62102;SDS011;48077;48.104;11.702;2022-11-20T10:13:14;3.25;;;1.40;;
62102;SDS011;48077;48.104;11.702;2022-11-20T10:29:18;3.35;;;1.52;;
62102;SDS011;48077;48.104;11.702;2022-11-20T10:31:53;1.85;;;1.33;;
62102;SDS011;48077;48.104;11.702;2022-11-20T10:34:34;2.35;;;1.52;;
62102;SDS011;48077;48.104;11.702;2022-11-20T10:37:14;2.72;;;1.73;;
62102;SDS011;48077;48.104;11.702;2022-11-20T10:39:42;3.03;;;1.40;;
62102;SDS011;48077;48.104;11.702;2022-11-20T10:42:28;3.42;;;1.75;;
62102;SDS011;48077;48.104;11.702;2022-11-20T10:45:02;3.78;;;1.48;;
62102;SDS011;48077;48.104;11.702;2022-11-20T10:47:38;2.03;;;1.25;;
62102;SDS011;48077;48.104;11.702;2022-11-20T10:50:03;2.97;;;1.30;;
62102;SDS011;48077;48.104;11.702;2022-11-20T11:00:46;1.30;;;0.88;;
62102;SDS011;48077;48.104;11.702;2022-11-20T11:03:17;2.70;;;1.45;;
62102;SDS011;48077;48.104;11.702;2022-11-20T11:08:32;2.45;;;1.08;;
62102;SDS011;48077;48.104;11.702;2022-11-20T11:11:02;3.58;;;1.52;;
62102;SDS011;48077;48.104;11.702;2022-11-20T11:13:41;2.15;;;1.05;;
62102;SDS011;48077;48.104;11.702;2022-11-20T11:16:04;3.15;;;1.13;;
62102;SDS011;48077;48.104;11.702;2022-11-20T11:18:28;2.80;;;1.42;;
62102;SDS011;48077;48.104;11.702;2022-11-20T11:20:54;4.53;;;1.35;;
62102;SDS011;48077;48.104;11.702;2022-11-20T11:23:34;2.45;;;1.40;;
62102;SDS011;48077;48.104;11.702;2022-11-20T11:26:00;2.45;;;1.30;;
62102;SDS011;48077;48.104;11.702;2022-11-20T11:28:25;2.95;;;0.90;;
62102;SDS011;48077;48.104;11.702;2022-11-20T11:30:50;2.63;;;1.13;;
62102;SDS011;48077;48.104;11.702;2022-11-20T11:33:21;2.90;;;1.40;;
62102;SDS011;48077;48.104;11.702;2022-11-20T11:35:49;2.40;;;1.20;;
62102;SDS011;48077;48.104;11.702;2022-11-20T11:38:21;3.17;;;1.38;;
62102;SDS011;48077;48.104;11.702;2022-11-20T11:40:52;3.47;;;1.40;;
62102;SDS011;48077;48.104;11.702;2022-11-20T11:43:18;3.63;;;1.30;;
62102;SDS011;48077;48.104;11.702;2022-11-20T11:46:04;3.17;;;1.35;;
62102;SDS011;48077;48.104;11.702;2022-11-20T11:48:56;1.88;;;1.30;;
62102;SDS011;48077;48.104;11.702;2022-11-20T11:51:39;2.42;;;1.17;;
62102;SDS011;48077;48.104;11.702;2022-11-20T11:54:20;2.05;;;1.27;;
62102;SDS011;48077;48.104;11.702;2022-11-20T11:56:47;3.63;;;1.55;;
62102;SDS011;48077;48.104;11.702;2022-11-20T11:59:12;3.80;;;1.52;;
62102;SDS011;48077;48.104;11.702;2022-11-20T12:01:46;4.43;;;1.63;;
62102;SDS011;48077;48.104;11.702;2022-11-20T12:10:03;2.70;;;1.20;;
62102;SDS011;48077;48.104;11.702;2022-11-20T12:12:27;2.17;;;1.33;;
62102;SDS011;48077;48.104;11.702;2022-11-20T12:14:58;3.75;;;1.63;;
62102;SDS011;48077;48.104;11.702;2022-11-20T12:17:21;2.42;;;1.30;;
62102;SDS011;48077;48.104;11.702;2022-11-20T12:19:45;2.67;;;1.45;;
62102;SDS011;48077;48.104;11.702;2022-11-20T12:25:20;4.45;;;1.50;;
62102;SDS011;48077;48.104;11.702;2022-11-20T12:30:25;3.42;;;1.60;;
62102;SDS011;48077;48.104;11.702;2022-11-20T12:44:10;4.35;;;1.60;;
62102;SDS011;48077;48.104;11.702;2022-11-20T12:47:13;3.25;;;1.52;;
62102;SDS011;48077;48.104;11.702;2022-11-20T12:52:53;2.78;;;1.35;;
62102;SDS011;48077;48.104;11.702;2022-11-20T12:56:04;2.47;;;1.63;;
62102;SDS011;48077;48.104;11.702;2022-11-20T12:58:29;3.38;;;1.40;;
62102;SDS011;48077;48.104;11.702;2022-11-20T13:04:07;4.22;;;1.73;;
62102;SDS011;48077;48.104;11.702;2022-11-20T13:06:39;3.22;;;1.80;;
62102;SDS011;48077;48.104;11.702;2022-11-20T13:09:04;2.55;;;1.73;;
62102;SDS011;48077;48.104;11.702;2022-11-20T13:17:04;2.83;;;1.50;;
62102;SDS011;48077;48.104;11.702;2022-11-20T13:19:32;3.08;;;1.65;;
62102;SDS011;48077;48.104;11.702;2022-11-20T13:21:56;6.68;;;2.05;;
62102;SDS011;48077;48.104;11.702;2022-11-20T13:26:46;3.28;;;1.50;;
62102;SDS011;48077;48.104;11.702;2022-11-20T13:29:11;1.77;;;1.50;;
62102;SDS011;48077;48.104;11.702;2022-11-20T13:31:41;4.80;;;1.88;;
62102;SDS011;48077;48.104;11.702;2022-11-20T13:34:11;3.70;;;1.67;;
62102;SDS011;48077;48.104;11.702;2022-11-20T13:36:38;4.05;;;1.63;;
62102;SDS011;48077;48.104;11.702;2022-11-20T13:39:23;3.67;;;1.52;;
62102;SDS011;48077;48.104;11.702;2022-11-20T13:41:54;5.05;;;2.03;;
62102;SDS011;48077;48.104;11.702;2022-11-20T13:44:29;2.50;;;1.50;;
62102;SDS011;48077;48.104;11.702;2022-11-20T13:46:56;3.50;;;1.77;;
62102;SDS011;48077;48.104;11.702;2022-11-20T13:49:33;2.45;;;1.30;;
62102;SDS011;48077;48.104;11.702;2022-11-20T13:57:47;2.50;;;1.55;;
62102;SDS011;48077;48.104;11.702;2022-11-20T14:00:22;3.08;;;1.73;;
62102;SDS011;48077;48.104;11.702;2022-11-20T14:02:57;2.63;;;1.30;;
62102;SDS011;48077;48.104;11.702;2022-11-20T14:05:25;2.53;;;1.63;;
62102;SDS011;48077;48.104;11.702;2022-11-20T14:07:49;2.63;;;1.88;;
62102;SDS011;48077;48.104;11.702;2022-11-20T14:10:27;3.92;;;1.92;;
62102;SDS011;48077;48.104;11.702;2022-11-20T14:12:51;2.97;;;1.67;;
62102;SDS011;48077;48.104;11.702;2022-11-20T14:15:31;4.38;;;1.67;;
62102;SDS011;48077;48.104;11.702;2022-11-20T14:17:56;4.20;;;2.55;;
62102;SDS011;48077;48.104;11.702;2022-11-20T14:20:20;2.85;;;2.00;;
62102;SDS011;48077;48.104;11.702;2022-11-20T14:27:37;3.53;;;2.40;;
62102;SDS011;48077;48.104;11.702;2022-11-20T14:30:03;17.23;;;9.07;;
62102;SDS011;48077;48.104;11.702;2022-11-20T14:32:27;18.15;;;9.70;;
62102;SDS011;48077;48.104;11.702;2022-11-20T14:34:53;8.60;;;5.35;;
62102;SDS011;48077;48.104;11.702;2022-11-20T14:37:18;8.45;;;4.25;;
62102;SDS011;48077;48.104;11.702;2022-11-20T14:39:49;5.00;;;3.28;;
62102;SDS011;48077;48.104;11.702;2022-11-20T14:42:15;4.63;;;2.78;;
62102;SDS011;48077;48.104;11.702;2022-11-20T14:44:40;3.63;;;2.40;;
62102;SDS011;48077;48.104;11.702;2022-11-20T14:47:04;6.10;;;3.45;;
62102;SDS011;48077;48.104;11.702;2022-11-20T14:49:29;5.20;;;2.75;;
62102;SDS011;48077;48.104;11.702;2022-11-20T14:52:27;4.05;;;2.45;;
62102;SDS011;48077;48.104;11.702;2022-11-20T14:54:46;4.95;;;2.40;;
62102;SDS011;48077;48.104;11.702;2022-11-20T14:57:31;4.68;;;2.50;;
62102;SDS011;48077;48.104;11.702;2022-11-20T15:02:46;4.20;;;2.33;;
62102;SDS011;48077;48.104;11.702;2022-11-20T15:05:11;4.05;;;2.28;;
62102;SDS011;48077;48.104;11.702;2022-11-20T15:07:37;4.18;;;1.63;;
62102;SDS011;48077;48.104;11.702;2022-11-20T15:12:29;7.85;;;5.25;;
62102;SDS011;48077;48.104;11.702;2022-11-20T15:14:54;3.63;;;1.58;;
62102;SDS011;48077;48.104;11.702;2022-11-20T15:17:18;4.35;;;1.42;;
62102;SDS011;48077;48.104;11.702;2022-11-20T15:19:41;2.13;;;1.30;;
62102;SDS011;48077;48.104;11.702;2022-11-20T15:22:07;2.50;;;1.55;;
62102;SDS011;48077;48.104;11.702;2022-11-20T15:24:35;4.50;;;1.98;;
62102;SDS011;48077;48.104;11.702;2022-11-20T15:26:58;2.55;;;1.50;;
62102;SDS011;48077;48.104;11.702;2022-11-20T15:29:22;4.95;;;1.60;;
62102;SDS011;48077;48.104;11.702;2022-11-20T15:31:46;3.15;;;1.50;;
62102;SDS011;48077;48.104;11.702;2022-11-20T15:34:16;2.17;;;1.30;;
62102;SDS011;48077;48.104;11.702;2022-11-20T15:36:39;2.45;;;1.50;;
62102;SDS011;48077;48.104;11.702;2022-11-20T15:39:04;1.95;;;1.10;;
62102;SDS011;48077;48.104;11.702;2022-11-20T15:41:27;3.80;;;1.60;;
62102;SDS011;48077;48.104;11.702;2022-11-20T15:43:50;3.50;;;1.70;;
62102;SDS011;48077;48.104;11.702;2022-11-20T15:46:15;3.88;;;1.80;;
62102;SDS011;48077;48.104;11.702;2022-11-20T15:48:41;4.03;;;1.40;;
62102;SDS011;48077;48.104;11.702;2022-11-20T15:53:33;3.63;;;1.63;;
62102;SDS011;48077;48.104;11.702;2022-11-20T15:55:56;4.30;;;1.85;;
62102;SDS011;48077;48.104;11.702;2022-11-20T15:58:19;3.47;;;1.83;;
62102;SDS011;48077;48.104;11.702;2022-11-20T16:00:43;3.30;;;1.60;;
62102;SDS011;48077;48.104;11.702;2022-11-20T16:03:09;4.00;;;1.90;;
62102;SDS011;48077;48.104;11.702;2022-11-20T16:05:34;3.78;;;1.70;;
62102;SDS011;48077;48.104;11.702;2022-11-20T16:07:57;3.30;;;1.90;;
62102;SDS011;48077;48.104;11.702;2022-11-20T16:10:21;4.93;;;1.67;;